Aviation Digital Data Service (ADDS)

Output produced by METARs form (1907 UTC 25 June 2017)
found at http://www.aviationweather.gov/adds/metars/
 
SMJP 251900Z 06004KT 9999 VCSH FEW010 FEW015CB SCT018 26/24 Q1011 NOSIG
TAF SMJP 251600Z 2518/2618 05008KT 9999 FEW020CB SCT025 TX32/2518Z TN23/2510Z 
     TEMPO 2518/2522 VRB12G22KT 3000 TSRA SCT015CB SCT020 
     BECMG 2600/2602 08003KT FEW010 SCT030 
     BECMG 2611/2613 10008KT 
     TEMPO 2614/2618 4000 SHRA